Time;durP1;ratioP1;P1;durP2;ratioP2;P2;SDS_P1;SDS_P2;PMS_P1;PMS_P2;Temp;Humidity;BMP_temperature;BMP_pressure;BME280_temperature;BME280_humidity;BME280_pressure;Samples;Min_cycle;Max_cycle;Signal;HPM_P1;HPM_P2
2022/06/15 00:00:14;;;;;;;3.30;2.20;;;;;;;11.86;69.68;98916.17;106746;1274;137842;-90
2022/06/15 00:03:05;;;;;;;4.90;2.20;;;;;;;11.83;69.65;98919.18;106965;1272;25359;-89
2022/06/15 00:05:34;;;;;;;4.80;2.40;;;;;;;11.81;69.86;98916.29;106218;1277;137959;-89
2022/06/15 00:08:02;;;;;;;5.70;2.40;;;;;;;11.79;69.55;98916.58;106931;1274;22544;-89
2022/06/15 00:10:29;;;;;;;5.00;2.30;;;;;;;11.78;69.53;98920.77;106647;1274;137667;-89
2022/06/15 00:12:56;;;;;;;5.70;2.20;;;;;;;11.77;69.55;98921.58;106876;1274;25589;-89
2022/06/15 00:15:23;;;;;;;4.80;1.90;;;;;;;11.76;69.66;98925.15;106964;1274;22557;-89
2022/06/15 00:17:53;;;;;;;4.10;2.30;;;;;;;11.74;69.53;98923.90;106617;1273;137893;-89
2022/06/15 00:20:20;;;;;;;3.60;2.40;;;;;;;11.69;69.47;98928.11;106519;1274;24350;-89
2022/06/15 00:22:49;;;;;;;3.80;2.10;;;;;;;11.65;69.30;98929.27;106319;1274;138048;-89
2022/06/15 00:25:16;;;;;;;3.40;2.00;;;;;;;11.63;69.52;98931.63;106428;1274;22550;-89
2022/06/15 00:27:44;;;;;;;5.60;2.80;;;;;;;11.62;69.41;98931.49;106795;1274;23477;-88
2022/06/15 00:30:12;;;;;;;4.70;2.70;;;;;;;11.62;69.39;98933.85;106653;1274;137825;-88
2022/06/15 00:32:45;;;;;;;4.90;2.20;;;;;;;11.61;69.37;98932.84;107126;1274;23052;-89
2022/06/15 00:35:13;;;;;;;7.60;2.30;;;;;;;11.61;69.27;98936.88;106334;1274;137780;-89
2022/06/15 00:37:40;;;;;;;5.50;2.70;;;;;;;11.60;69.23;98939.37;106982;1272;24267;-88
2022/06/15 00:40:09;;;;;;;8.30;2.30;;;;;;;11.58;69.53;98937.77;106797;1273;23118;-88
2022/06/15 00:42:37;;;;;;;6.30;2.50;;;;;;;11.57;69.61;98938.28;106823;1273;24061;-86
2022/06/15 00:45:06;;;;;;;3.60;1.90;;;;;;;11.55;69.68;98939.16;106647;1273;22696;-89
2022/06/15 00:47:38;;;;;;;5.20;2.20;;;;;;;11.56;69.74;98937.92;107220;1274;138472;-89
2022/06/15 00:50:21;;;;;;;5.80;2.30;;;;;;;11.59;69.69;98937.13;106767;1274;23178;-88
2022/06/15 00:53:05;;;;;;;3.80;1.90;;;;;;;11.64;69.52;98932.30;106620;1274;137693;-88
2022/06/15 00:55:35;;;;;;;3.00;1.90;;;;;;;11.65;69.82;98933.26;106467;1274;25343;-88
2022/06/15 00:58:08;;;;;;;5.80;2.00;;;;;;;11.68;70.13;98932.17;106531;1274;22541;-88
2022/06/15 01:00:37;;;;;;;5.30;2.40;;;;;;;11.70;69.83;98933.67;107203;1274;22556;-89
2022/06/15 01:03:06;;;;;;;5.90;2.20;;;;;;;11.72;69.75;98932.80;106738;1274;22561;-89
2022/06/15 01:05:36;;;;;;;4.00;2.10;;;;;;;11.73;70.08;98929.63;106940;1274;137489;-89
2022/06/15 01:08:34;;;;;;;7.80;2.70;;;;;;;11.73;70.12;98931.89;106939;1274;22544;-89
2022/06/15 01:11:19;;;;;;;6.60;2.40;;;;;;;11.73;70.12;98934.46;106785;1274;138397;-88
2022/06/15 01:14:24;;;;;;;6.40;2.90;;;;;;;11.75;70.25;98935.60;107152;1274;25618;-89
2022/06/15 01:17:18;;;;;;;3.90;2.40;;;;;;;11.77;71.05;98936.25;106752;1274;137575;-88
2022/06/15 01:20:03;;;;;;;9.90;2.90;;;;;;;11.81;71.32;98936.81;106208;1274;578052;-88
2022/06/15 01:22:59;;;;;;;3.60;2.50;;;;;;;11.83;71.47;98938.75;106334;1274;137913;-88
2022/06/15 01:25:44;;;;;;;7.70;2.40;;;;;;;11.83;71.20;98939.91;106478;1274;24243;-88
2022/06/15 01:28:33;;;;;;;7.90;2.70;;;;;;;11.84;71.33;98935.61;106296;1277;138470;-88
2022/06/15 01:31:42;;;;;;;8.40;2.50;;;;;;;11.87;70.90;98937.58;106994;1274;22577;-90
2022/06/15 01:34:20;;;;;;;4.20;2.00;;;;;;;11.93;70.65;98936.77;106429;1274;137972;-89
2022/06/15 01:37:12;;;;;;;8.60;2.20;;;;;;;11.98;70.23;98934.41;106853;1274;23683;-90
2022/06/15 01:40:11;;;;;;;4.80;2.00;;;;;;;12.03;70.01;98935.48;107137;1273;22567;-89
2022/06/15 01:42:46;;;;;;;4.10;2.20;;;;;;;11.97;71.08;98929.58;106714;1274;22728;-89
2022/06/15 01:45:18;;;;;;;2.90;1.80;;;;;;;11.95;71.51;98924.79;106804;1276;22583;-89
2022/06/15 01:47:49;;;;;;;8.10;2.20;;;;;;;11.98;71.08;98926.55;106732;1276;138323;-90
2022/06/15 01:50:23;;;;;;;4.20;2.70;;;;;;;12.02;70.92;98926.07;106708;1276;22571;-89
2022/06/15 01:53:04;;;;;;;3.50;1.80;;;;;;;12.05;71.57;98922.48;106980;1274;137831;-89
2022/06/15 01:55:39;;;;;;;4.10;2.10;;;;;;;12.07;72.74;98923.27;106698;1274;22675;-89
2022/06/15 01:58:10;;;;;;;4.60;2.50;;;;;;;12.09;72.91;98921.35;106399;1274;22606;-88
2022/06/15 02:00:41;;;;;;;4.40;1.90;;;;;;;12.12;72.36;98923.38;107186;1273;25261;-88
2022/06/15 02:03:17;;;;;;;5.60;2.30;;;;;;;12.15;72.25;98922.02;106707;1273;22541;-88
2022/06/15 02:06:22;;;;;;;4.40;2.20;;;;;;;12.13;71.42;98924.98;106451;1276;137631;-89
2022/06/15 02:08:58;;;;;;;4.80;2.20;;;;;;;12.11;71.77;98922.05;106555;1274;22680;-90
2022/06/15 02:11:37;;;;;;;5.80;2.50;;;;;;;12.11;71.64;98923.69;106372;1274;138429;-89
2022/06/15 02:14:19;;;;;;;2.70;1.60;;;;;;;12.11;71.78;98923.14;106467;1274;22652;-89
2022/06/15 02:16:52;;;;;;;5.10;2.10;;;;;;;12.13;71.67;98925.63;106169;1277;137896;-89
2022/06/15 02:19:32;;;;;;;5.70;2.20;;;;;;;12.13;71.76;98926.08;106564;1273;22663;-89
2022/06/15 02:22:11;;;;;;;3.80;2.00;;;;;;;12.11;71.63;98925.91;106384;1274;24277;-89
2022/06/15 02:24:40;;;;;;;6.80;2.40;;;;;;;12.13;71.42;98924.48;106403;1274;26528;-92
2022/06/15 02:27:09;;;;;;;6.30;2.40;;;;;;;12.15;71.01;98927.59;106539;1276;25266;-89
2022/06/15 02:29:38;;;;;;;4.50;2.20;;;;;;;12.14;70.99;98923.64;106081;1274;137692;-89
2022/06/15 02:32:11;;;;;;;2.90;2.00;;;;;;;12.14;70.63;98922.20;106519;1274;22605;-89
2022/06/15 02:34:39;;;;;;;5.00;2.00;;;;;;;12.16;70.35;98924.27;106458;1275;139533;-89
2022/06/15 02:37:11;;;;;;;5.80;2.20;;;;;;;12.20;70.06;98924.77;106520;1276;24325;-89
2022/06/15 02:39:39;;;;;;;4.30;2.30;;;;;;;12.24;69.67;98923.61;106696;1274;22842;-89
2022/06/15 02:42:27;;;;;;;5.20;2.50;;;;;;;12.28;69.31;98926.42;106152;1274;137920;-89
2022/06/15 02:45:03;;;;;;;3.70;2.30;;;;;;;12.31;69.25;98928.48;106307;1274;23158;-88
2022/06/15 02:47:35;;;;;;;5.60;2.00;;;;;;;12.30;69.49;98928.73;106587;1274;137498;-89
2022/06/15 02:50:04;;;;;;;7.40;2.40;;;;;;;12.30;69.95;98926.77;106372;1274;24322;-91
2022/06/15 02:52:38;;;;;;;7.70;1.90;;;;;;;12.29;70.56;98928.17;106505;1274;137591;-88
2022/06/15 02:55:08;;;;;;;5.20;2.40;;;;;;;12.30;70.43;98920.77;106270;1274;26505;-89
2022/06/15 02:57:45;;;;;;;5.40;2.30;;;;;;;12.32;70.70;98920.70;106557;1276;24300;-89
2022/06/15 03:00:14;;;;;;;4.30;2.00;;;;;;;12.35;70.89;98922.16;106343;1276;137406;-88
2022/06/15 03:02:43;;;;;;;6.20;2.30;;;;;;;12.37;70.64;98923.50;106308;1276;22558;-88
2022/06/15 03:05:10;;;;;;;4.10;2.80;;;;;;;12.38;70.29;98925.83;106167;1274;137435;-90
2022/06/15 03:07:37;;;;;;;8.30;2.70;;;;;;;12.39;70.22;98920.02;106298;1274;23414;-90
2022/06/15 03:10:05;;;;;;;4.10;2.40;;;;;;;12.42;70.15;98920.86;106499;1274;25487;-89
2022/06/15 03:12:33;;;;;;;;;;;;;;;12.44;69.52;98920.26;106289;1277;137701;-89
2022/06/15 03:15:01;;;;;;;3.90;2.10;;;;;;;12.45;69.41;98921.52;106349;1274;22815;-89
2022/06/15 03:17:28;;;;;;;4.30;2.30;;;;;;;12.44;69.71;98922.48;106205;1274;137471;-90
2022/06/15 03:19:59;;;;;;;2.90;2.00;;;;;;;12.42;70.08;98922.08;106196;1274;24309;-89
2022/06/15 03:22:26;;;;;;;3.20;2.00;;;;;;;12.44;70.85;98922.48;106310;1277;138679;-90
2022/06/15 03:24:56;;;;;;;2.60;2.20;;;;;;;12.47;72.01;98927.74;106653;1274;22559;-89
2022/06/15 03:27:23;;;;;;;2.70;2.10;;;;;;;12.47;72.48;98929.70;106214;1274;25513;-89
2022/06/15 03:29:51;;;;;;;6.40;2.50;;;;;;;12.37;73.29;98934.21;105916;1276;137629;-90
2022/06/15 03:32:21;;;;;;;5.40;2.30;;;;;;;12.26;73.63;98936.52;106337;1275;24211;-88
2022/06/15 03:34:54;;;;;;;4.90;2.40;;;;;;;12.23;73.92;98938.06;106348;1275;138932;-89
2022/06/15 03:37:21;;;;;;;10.30;2.90;;;;;;;12.23;74.02;98942.38;106474;1274;22630;-89
2022/06/15 03:39:49;;;;;;;6.00;3.10;;;;;;;12.25;74.23;98939.94;106315;1274;25544;-89
2022/06/15 03:42:19;;;;;;;4.80;2.30;;;;;;;12.21;74.53;98938.45;106475;1272;137595;-89
2022/06/15 03:44:48;;;;;;;5.10;2.10;;;;;;;12.14;75.35;98939.58;106231;1276;24278;-89
2022/06/15 03:47:19;;;;;;;6.50;2.50;;;;;;;12.14;74.69;98935.43;106269;1274;138037;-89
2022/06/15 03:49:52;;;;;;;4.00;2.10;;;;;;;12.13;75.10;98938.36;106288;1276;24267;-87
2022/06/15 03:52:23;;;;;;;4.70;1.90;;;;;;;12.10;75.66;98937.32;106162;1274;138305;-89
2022/06/15 03:54:50;;;;;;;3.80;2.00;;;;;;;12.08;75.76;98934.98;106264;1275;23526;-90
2022/06/15 03:57:20;;;;;;;3.90;2.40;;;;;;;12.09;75.82;98935.29;106540;1274;22567;-90
2022/06/15 03:59:48;;;;;;;3.80;2.10;;;;;;;12.16;76.18;98936.66;106439;1274;137488;-88
2022/06/15 04:02:34;;;;;;;6.80;2.60;;;;;;;12.21;76.03;98938.61;106537;1274;24287;-91
2022/06/15 04:05:02;;;;;;;8.40;1.90;;;;;;;12.28;76.34;98940.39;106156;1277;137502;-90
2022/06/15 04:10:16;;;;;;;5.70;2.50;;;;;;;12.55;75.93;98937.70;106290;1275;138134;-90
2022/06/15 04:12:44;;;;;;;4.70;2.80;;;;;;;12.70;76.14;98938.73;106597;1274;24138;-89
2022/06/15 04:15:16;;;;;;;5.60;2.70;;;;;;;12.83;76.07;98941.24;106957;1274;25511;-89
2022/06/15 04:17:50;;;;;;;8.70;2.60;;;;;;;12.94;75.76;98939.13;106493;1276;137680;-88
2022/06/15 04:20:52;;;;;;;9.30;4.20;;;;;;;13.00;75.52;98943.05;106439;1276;22567;-90
2022/06/15 04:23:23;;;;;;;4.70;2.60;;;;;;;13.06;75.45;98943.54;106865;1274;137711;-89
2022/06/15 04:26:03;;;;;;;5.90;1.90;;;;;;;13.15;75.19;98947.99;107135;1274;22829;-89
2022/06/15 04:28:43;;;;;;;5.70;2.60;;;;;;;13.23;74.86;98943.97;106992;1273;138276;-89
2022/06/15 04:31:17;;;;;;;5.30;2.40;;;;;;;13.30;74.54;98944.85;107012;1274;25493;-88
2022/06/15 04:33:44;;;;;;;6.00;2.50;;;;;;;13.37;73.92;98945.83;106717;1276;22544;-88
2022/06/15 04:36:14;;;;;;;5.40;2.30;;;;;;;13.41;73.49;98945.75;106335;1276;137637;-87
2022/06/15 04:38:44;;;;;;;7.30;3.20;;;;;;;13.46;73.08;98939.99;106429;1276;24312;-87
2022/06/15 04:41:11;;;;;;;7.90;2.60;;;;;;;13.51;72.67;98942.42;106700;1273;137475;-89
2022/06/15 04:43:38;;;;;;;7.80;3.20;;;;;;;13.54;72.28;98940.81;106738;1275;22554;-90
2022/06/15 04:46:11;;;;;;;6.10;2.70;;;;;;;13.58;71.89;98943.17;106823;1274;137994;-88
2022/06/15 04:48:38;;;;;;;5.30;2.50;;;;;;;13.61;71.85;98936.86;106696;1276;25262;-89
2022/06/15 04:51:14;;;;;;;6.10;2.80;;;;;;;13.65;72.12;98935.22;106626;1274;24318;-89
2022/06/15 04:53:45;;;;;;;7.10;2.90;;;;;;;13.67;71.79;98938.54;106717;1273;137458;-90
2022/06/15 04:56:15;;;;;;;9.90;3.10;;;;;;;13.65;71.51;98935.89;106566;1275;22554;-89
2022/06/15 04:58:43;;;;;;;10.50;3.20;;;;;;;13.63;71.27;98933.11;106317;1276;137758;-90
2022/06/15 05:01:11;;;;;;;10.10;3.30;;;;;;;13.64;71.18;98935.48;107035;1275;22793;-88
2022/06/15 05:03:40;;;;;;;8.60;3.30;;;;;;;13.65;71.09;98937.10;106876;1273;23978;-89
2022/06/15 05:06:28;;;;;;;8.30;3.10;;;;;;;13.67;71.08;98935.15;106817;1274;137457;-89
2022/06/15 05:08:56;;;;;;;7.50;2.90;;;;;;;13.68;71.19;98935.38;106750;1277;23284;-89
2022/06/15 05:11:26;;;;;;;7.20;2.80;;;;;;;13.70;71.06;98933.10;106889;1274;139001;-90
2022/06/15 05:13:55;;;;;;;6.20;2.80;;;;;;;13.79;70.85;98938.97;107011;1274;22554;-90
2022/06/15 05:16:23;;;;;;;12.90;3.00;;;;;;;13.84;70.51;98937.99;106843;1274;138504;-90
2022/06/15 05:18:52;;;;;;;12.50;3.40;;;;;;;13.89;70.41;98939.30;106966;1274;22610;-90
2022/06/15 05:21:24;;;;;;;12.50;3.80;;;;;;;13.96;70.39;98937.48;106837;1274;22547;-91
2022/06/15 05:23:51;;;;;;;9.30;3.40;;;;;;;13.97;69.90;98939.19;106518;1276;138024;-90
2022/06/15 05:26:32;;;;;;;12.70;3.60;;;;;;;13.96;69.95;98940.55;106607;1276;23492;-90
2022/06/15 05:28:59;;;;;;;9.00;4.00;;;;;;;13.93;69.92;98938.81;106482;1277;137787;-90
2022/06/15 05:31:31;;;;;;;11.40;3.30;;;;;;;13.86;69.75;98938.63;106433;1276;22530;-89
2022/06/15 05:34:06;;;;;;;10.30;3.50;;;;;;;13.79;70.00;98940.30;106382;1277;24343;-90
2022/06/15 05:36:39;;;;;;;11.00;4.10;;;;;;;13.75;70.30;98943.40;106675;1277;25437;-91
2022/06/15 05:39:07;;;;;;;12.50;3.90;;;;;;;13.76;70.54;98949.23;106558;1276;24295;-91
2022/06/15 05:41:41;;;;;;;14.30;4.20;;;;;;;13.79;70.80;98952.44;107458;1276;138138;-89
2022/06/15 05:46:59;;;;;;;13.00;3.70;;;;;;;13.84;71.44;98950.47;107758;1274;137899;-89
2022/06/15 05:49:32;;;;;;;7.50;3.60;;;;;;;13.87;71.15;98950.89;107619;1274;22587;-89
2022/06/15 05:52:01;;;;;;;7.70;3.10;;;;;;;13.93;71.48;98949.93;107572;1277;22675;-89
2022/06/15 05:54:31;;;;;;;15.60;3.50;;;;;;;13.99;71.60;98951.82;107745;1274;137348;-89
2022/06/15 05:56:59;;;;;;;8.20;2.40;;;;;;;14.08;69.80;98951.10;107727;1274;24131;-89
2022/06/15 05:59:26;;;;;;;5.00;2.20;;;;;;;14.15;68.97;98947.67;107459;1274;138144;-90
2022/06/15 06:02:25;;;;;;;9.90;2.60;;;;;;;14.25;68.36;98949.42;107634;1274;24355;-89
2022/06/15 06:05:51;;;;;;;7.40;2.20;;;;;;;14.37;67.22;98948.02;108279;1275;137759;-89
2022/06/15 06:12:21;;;;;;;5.40;1.60;;;;;;;14.54;65.52;98952.31;107698;1276;138134;-89
2022/06/15 06:15:35;;;;;;;1.90;1.40;;;;;;;14.63;65.06;98954.23;108321;1274;22570;-90
2022/06/15 06:18:32;;;;;;;5.80;1.40;;;;;;;14.71;64.71;98954.14;107735;1274;137497;-90
2022/06/15 06:21:17;;;;;;;4.90;1.50;;;;;;;14.79;62.39;98954.34;107801;1274;23172;-90
2022/06/15 06:24:10;;;;;;;5.30;1.80;;;;;;;14.85;61.47;98960.14;107830;1275;138697;-89
2022/06/15 06:27:01;;;;;;;5.40;1.90;;;;;;;14.87;61.25;98955.16;108436;1274;22574;-89
2022/06/15 06:29:47;;;;;;;4.80;1.60;;;;;;;14.95;61.93;98961.11;108964;1274;137385;-88
2022/06/15 06:32:39;;;;;;;7.30;1.50;;;;;;;15.06;60.45;98965.85;107916;1276;23464;-88
2022/06/15 06:35:17;;;;;;;3.50;1.50;;;;;;;15.14;60.59;98966.52;107725;1274;138101;-89
2022/06/15 06:38:16;;;;;;;3.90;1.60;;;;;;;15.26;59.48;98971.33;107674;1274;22541;-89
2022/06/15 06:41:35;;;;;;;4.70;1.80;;;;;;;15.38;59.34;98969.34;106960;1277;137420;-88
2022/06/15 06:44:41;;;;;;;3.30;1.90;;;;;;;15.51;59.81;98975.30;107194;1275;22610;-89
2022/06/15 06:47:24;;;;;;;6.20;2.00;;;;;;;15.63;58.92;98971.64;107350;1274;137411;-90
2022/06/15 06:50:08;;;;;;;6.50;1.70;;;;;;;15.75;58.37;98972.39;107119;1274;25264;-89
2022/06/15 06:52:39;;;;;;;5.70;1.70;;;;;;;15.85;57.64;98964.10;106812;1274;137831;-88
2022/06/15 06:55:13;;;;;;;4.80;1.30;;;;;;;15.97;57.46;98962.45;106643;1275;22541;-89
2022/06/15 06:57:40;;;;;;;5.80;1.50;;;;;;;16.09;56.48;98961.52;107129;1274;24374;-90
2022/06/15 07:00:20;;;;;;;9.40;2.00;;;;;;;16.21;56.28;98964.14;107169;1274;137612;-89
2022/06/15 07:03:08;;;;;;;9.80;2.40;;;;;;;16.34;55.69;98963.13;107156;1274;22690;-89
2022/06/15 07:06:18;;;;;;;7.70;2.00;;;;;;;16.40;55.67;98966.44;107031;1275;137961;-89
2022/06/15 07:08:46;;;;;;;6.10;1.40;;;;;;;16.49;55.60;98965.36;107375;1276;22557;-83
2022/06/15 07:11:16;;;;;;;9.10;2.10;;;;;;;16.55;54.60;98969.73;106524;1274;138097;-87
2022/06/15 07:13:45;;;;;;;5.30;1.70;;;;;;;16.62;54.87;98964.63;106471;1276;22700;-81
2022/06/15 07:16:15;;;;;;;7.80;2.00;;;;;;;16.67;54.05;98968.00;106313;1278;137782;-86
2022/06/15 07:18:44;;;;;;;6.80;2.20;;;;;;;16.71;54.42;98967.66;106139;1277;24051;-90
2022/06/15 07:21:14;;;;;;;6.00;2.30;;;;;;;16.75;54.00;98967.95;106329;1274;23374;-93
2022/06/15 07:23:43;;;;;;;7.40;2.00;;;;;;;16.76;54.10;98968.33;106438;1275;138021;-81
2022/06/15 07:26:17;;;;;;;4.10;1.90;;;;;;;16.77;53.52;98971.02;106759;1274;25334;-82
2022/06/15 07:28:44;;;;;;;5.80;1.90;;;;;;;16.81;52.92;98968.29;106245;1274;137599;-81
2022/06/15 07:31:34;;;;;;;6.00;2.00;;;;;;;16.88;52.74;98964.92;106360;1277;22826;-78
2022/06/15 07:34:06;;;;;;;4.70;2.00;;;;;;;16.96;52.67;98962.16;107707;1274;25371;-78
2022/06/15 07:36:48;;;;;;;3.30;1.70;;;;;;;16.98;51.90;98962.10;107050;1277;22817;-86
2022/06/15 07:39:46;;;;;;;7.50;2.70;;;;;;;16.95;51.51;98961.34;107491;1274;23219;-87
2022/06/15 07:42:45;;;;;;;4.80;2.20;;;;;;;17.01;51.55;98959.25;107048;1274;23968;-83
2022/06/15 07:45:15;;;;;;;10.30;2.30;;;;;;;17.10;51.41;98958.70;106603;1275;23968;-80
2022/06/15 07:50:29;;;;;;;9.50;2.10;;;;;;;17.38;50.65;98953.06;106501;1274;22765;-81
2022/06/15 07:52:57;;;;;;;5.00;1.80;;;;;;;17.45;50.62;98948.87;106576;1274;138179;-82
2022/06/15 07:55:28;;;;;;;4.30;1.90;;;;;;;17.53;50.95;98953.64;106518;1277;25600;-82
2022/06/15 07:57:56;;;;;;;4.20;1.90;;;;;;;17.61;50.06;98950.94;106560;1275;25743;-82
2022/06/15 08:00:35;;;;;;;7.20;2.10;;;;;;;17.68;50.05;98954.70;106538;1274;138606;-81
2022/06/15 08:03:10;;;;;;;6.30;2.10;;;;;;;17.81;49.95;98949.70;107185;1276;22687;-81
2022/06/15 08:05:45;;;;;;;4.40;2.20;;;;;;;17.91;49.51;98949.10;106170;1274;137641;-81
2022/06/15 08:08:17;;;;;;;5.90;1.70;;;;;;;18.04;49.25;98939.07;106843;1274;24231;-81
2022/06/15 08:10:45;;;;;;;4.90;1.60;;;;;;;18.19;49.28;98942.64;106411;1275;137982;-82
2022/06/15 08:13:13;;;;;;;4.50;1.80;;;;;;;18.34;49.22;98942.73;106736;1274;24434;-82
2022/06/15 08:15:42;;;;;;;4.20;1.60;;;;;;;18.44;49.40;98946.20;106385;1274;25263;-82
2022/06/15 08:18:19;;;;;;;5.00;2.30;;;;;;;18.53;48.62;98945.16;106083;1277;137741;-82
2022/06/15 08:21:18;;;;;;;7.20;2.00;;;;;;;18.64;48.67;98940.95;106584;1277;24274;-82
2022/06/15 08:23:49;;;;;;;6.90;1.70;;;;;;;18.73;47.66;98934.16;106605;1274;137797;-82
2022/06/15 08:26:22;;;;;;;6.80;2.10;;;;;;;18.74;47.86;98931.66;106578;1276;22808;-82
2022/06/15 08:28:54;;;;;;;4.70;1.70;;;;;;;18.87;48.18;98937.22;106215;1277;137787;-83
2022/06/15 08:31:22;;;;;;;5.60;1.90;;;;;;;18.95;46.95;98937.20;107177;1274;22544;-82
2022/06/15 08:33:50;;;;;;;3.10;1.50;;;;;;;19.06;46.94;98934.70;106670;1274;25332;-83
2022/06/15 08:36:16;;;;;;;5.70;2.30;;;;;;;19.22;46.63;98939.30;106446;1278;137580;-82
2022/06/15 08:38:47;;;;;;;5.30;1.80;;;;;;;19.34;46.55;98935.38;106239;1277;23370;-82
2022/06/15 08:41:36;;;;;;;6.20;1.80;;;;;;;19.53;46.74;98939.66;106479;1275;137592;-82
2022/06/15 08:44:31;;;;;;;7.50;2.30;;;;;;;19.80;46.57;98940.61;106340;1275;22563;-82
2022/06/15 08:47:10;;;;;;;5.20;1.90;;;;;;;20.06;46.05;98944.33;106348;1274;137499;-82
2022/06/15 08:50:20;;;;;;;5.60;1.90;;;;;;;20.31;45.56;98943.29;106170;1277;22582;-82
2022/06/15 08:52:59;;;;;;;7.80;2.20;;;;;;;20.41;45.37;98942.34;106223;1275;138262;-82
2022/06/15 08:55:44;;;;;;;6.00;1.70;;;;;;;20.46;44.94;98938.45;106882;1277;22585;-82
2022/06/15 08:58:51;;;;;;;3.40;1.70;;;;;;;20.36;44.37;98939.14;106930;1275;137552;-82
2022/06/15 09:01:30;;;;;;;6.90;1.60;;;;;;;20.51;44.28;98937.16;106914;1277;22562;-83
2022/06/15 09:04:21;;;;;;;8.70;2.20;;;;;;;20.78;43.93;98935.95;106536;1274;25503;-83
2022/06/15 09:07:17;;;;;;;6.50;2.10;;;;;;;21.05;43.34;98942.89;107450;1274;22572;-83
2022/06/15 09:10:23;;;;;;;5.00;1.60;;;;;;;20.98;42.04;98940.60;106544;1274;23474;-81
2022/06/15 09:13:16;;;;;;;5.30;1.50;;;;;;;21.16;42.38;98936.89;106117;1274;24227;-82
2022/06/15 09:15:53;;;;;;;5.00;1.90;;;;;;;21.29;41.81;98933.44;106550;1274;23918;-83
2022/06/15 09:18:36;;;;;;;5.70;1.60;;;;;;;21.35;42.09;98930.55;106268;1277;137801;-82
2022/06/15 09:21:17;;;;;;;6.50;1.90;;;;;;;21.39;41.94;98931.59;106292;1274;31848;-82
2022/06/15 09:24:28;;;;;;;5.00;1.60;;;;;;;21.32;42.32;98929.34;106581;1274;137528;-82
2022/06/15 09:27:25;;;;;;;9.30;1.90;;;;;;;21.18;42.15;98934.08;106619;1273;22660;-83
2022/06/15 09:29:59;;;;;;;5.90;2.10;;;;;;;21.08;42.12;98932.14;106089;1277;137486;-82
2022/06/15 09:32:40;;;;;;;3.30;1.40;;;;;;;20.94;43.19;98930.70;106491;1275;24168;-82
2022/06/15 09:35:16;;;;;;;7.50;2.00;;;;;;;20.90;43.65;98928.06;106324;1277;137519;-82
2022/06/15 09:37:49;;;;;;;5.00;2.20;;;;;;;20.93;43.29;98927.39;106369;1277;25699;-82
2022/06/15 09:40:17;;;;;;;4.10;2.10;;;;;;;21.23;42.57;98927.77;106592;1274;138048;-83
2022/06/15 09:43:06;;;;;;;4.50;2.10;;;;;;;21.51;41.47;98925.87;106740;1274;25248;-83
2022/06/15 09:45:44;;;;;;;7.30;1.90;;;;;;;21.85;41.02;98924.47;106665;1274;24315;-83
2022/06/15 09:48:19;;;;;;;;;;;;;;;22.03;40.22;98922.23;106983;1274;137448;-83
2022/06/15 09:51:01;;;;;;;5.70;2.20;;;;;;;22.00;39.47;98921.08;106543;1274;22606;-83
2022/06/15 09:53:52;;;;;;;8.40;2.60;;;;;;;21.92;39.22;98918.52;106114;1277;138044;-83
2022/06/15 09:56:20;;;;;;;14.20;3.00;;;;;;;21.66;39.94;98915.69;106180;1276;22839;-83
2022/06/15 09:58:58;;;;;;;25.10;4.20;;;;;;;21.46;40.47;98920.90;106277;1274;137932;-83
2022/06/15 10:01:45;;;;;;;9.10;2.80;;;;;;;21.12;40.69;98918.66;106674;1274;22621;-83
2022/06/15 10:04:59;;;;;;;6.10;1.90;;;;;;;21.16;41.74;98922.36;106429;1274;138308;-83
2022/06/15 10:08:16;;;;;;;3.70;1.90;;;;;;;21.59;40.77;98921.83;106458;1274;25352;-83
2022/06/15 10:10:47;;;;;;;;;;;;;;;21.96;40.92;98917.61;106353;1274;137747;-83
2022/06/15 10:13:20;;;;;;;8.40;3.00;;;;;;;22.37;40.42;98909.59;106364;1274;22726;-84
2022/06/15 10:15:55;;;;;;;5.70;2.30;;;;;;;22.57;40.85;98909.36;106270;1275;24302;-83
2022/06/15 10:18:49;;;;;;;6.60;2.00;;;;;;;22.77;39.48;98904.00;106281;1274;137587;-84
2022/06/15 10:21:23;;;;;;;7.70;2.80;;;;;;;23.00;38.69;98904.71;106454;1274;25263;-83
2022/06/15 10:24:24;;;;;;;4.90;2.10;;;;;;;22.95;38.45;98906.96;106376;1277;137924;-84
2022/06/15 10:27:32;;;;;;;6.10;2.40;;;;;;;22.65;37.90;98903.69;106723;1274;25343;-84
2022/06/15 10:30:11;;;;;;;6.10;2.10;;;;;;;22.53;38.45;98901.23;106331;1275;137698;-83
2022/06/15 10:33:00;;;;;;;8.00;2.40;;;;;;;22.59;39.58;98902.03;106587;1274;25394;-84
2022/06/15 10:35:31;;;;;;;5.80;2.40;;;;;;;23.04;39.81;98893.85;106322;1277;137630;-84
2022/06/15 10:38:04;;;;;;;4.80;2.10;;;;;;;23.42;39.26;98887.23;106341;1274;22566;-84
2022/06/15 10:40:36;;;;;;;7.00;2.00;;;;;;;23.77;37.48;98884.36;106494;1274;138037;-84
2022/06/15 10:43:15;;;;;;;6.50;1.90;;;;;;;23.96;36.62;98882.08;106371;1275;25370;-83
2022/06/15 10:46:04;;;;;;;4.10;2.30;;;;;;;24.21;36.98;98882.28;106643;1274;22571;-83
2022/06/15 10:48:43;;;;;;;5.60;2.50;;;;;;;24.32;35.90;98872.14;106243;1274;137843;-85
2022/06/15 10:51:36;;;;;;;8.50;2.60;;;;;;;24.36;35.56;98870.48;106728;1274;22619;-85
2022/06/15 10:54:26;;;;;;;7.20;2.10;;;;;;;24.35;34.99;98868.09;106462;1274;137818;-83
2022/06/15 11:03:21;;;;;;;11.70;3.00;;;;;;;23.89;36.37;98868.04;106719;1274;22567;-83
2022/06/15 11:05:53;;;;;;;9.70;2.80;;;;;;;23.61;36.41;98873.56;106783;1274;137785;-83
2022/06/15 11:08:30;;;;;;;8.00;2.40;;;;;;;23.42;36.78;98867.91;106212;1274;24295;-83
2022/06/15 11:11:21;;;;;;;7.00;2.10;;;;;;;23.33;36.83;98865.75;106459;1274;137645;-83
2022/06/15 11:14:17;;;;;;;4.90;2.20;;;;;;;23.24;37.11;98871.73;106336;1273;24322;-83
2022/06/15 11:20:32;;;;;;;5.00;2.00;;;;;;;23.23;36.55;98869.59;106421;1274;25369;-84
2022/06/15 11:23:33;;;;;;;4.90;2.10;;;;;;;23.33;36.79;98869.71;106189;1273;137609;-84
2022/06/15 11:29:55;;;;;;;6.20;2.10;;;;;;;24.16;36.80;98860.43;106422;1274;137410;-84
2022/06/15 11:32:51;;;;;;;6.10;2.00;;;;;;;24.50;35.00;98857.48;106434;1274;25279;-84
2022/06/15 11:36:25;;;;;;;5.70;2.10;;;;;;;24.76;35.03;98850.72;106641;1273;137510;-84
2022/06/15 11:39:55;;;;;;;6.60;2.10;;;;;;;24.82;33.95;98850.02;106436;1273;25334;-84
2022/06/15 11:42:24;;;;;;;3.30;1.70;;;;;;;25.04;34.71;98854.79;106608;1276;137598;-84
2022/06/15 11:44:52;;;;;;;5.00;1.60;;;;;;;25.29;34.52;98848.94;106457;1274;24323;-85
2022/06/15 11:47:42;;;;;;;3.20;1.60;;;;;;;25.64;32.98;98850.11;106428;1274;137901;-83
2022/06/15 11:50:28;;;;;;;5.60;1.60;;;;;;;25.81;32.44;98851.23;106459;1274;24314;-83
2022/06/15 11:53:22;;;;;;;4.50;1.80;;;;;;;25.58;32.63;98853.45;106512;1274;137670;-85
2022/06/15 11:56:08;;;;;;;4.00;1.40;;;;;;;25.38;32.99;98849.40;106664;1274;29277;-84
2022/06/15 11:58:59;;;;;;;5.20;1.70;;;;;;;25.22;33.29;98852.52;106682;1274;137853;-84
2022/06/15 12:01:52;;;;;;;5.20;1.60;;;;;;;24.99;33.64;98848.27;106475;1274;22750;-83
2022/06/15 12:05:01;;;;;;;5.50;1.50;;;;;;;24.96;34.30;98847.92;106453;1276;137723;-85
2022/06/15 12:07:58;;;;;;;4.80;1.60;;;;;;;25.33;33.77;98847.69;106322;1275;25342;-85
2022/06/15 12:10:52;;;;;;;4.00;1.50;;;;;;;25.19;32.86;98846.10;106253;1276;138168;-85
2022/06/15 12:13:44;;;;;;;6.00;1.60;;;;;;;25.01;33.35;98847.98;106403;1274;22698;-84
2022/06/15 12:16:35;;;;;;;5.50;1.70;;;;;;;25.17;32.49;98842.59;106047;1277;137854;-84
2022/06/15 12:19:59;;;;;;;3.70;1.70;;;;;;;25.45;33.16;98839.85;106312;1274;25268;-85
2022/06/15 12:22:47;;;;;;;6.00;2.50;;;;;;;25.62;32.17;98840.58;106108;1275;137748;-85
2022/06/15 12:25:37;;;;;;;2.40;1.40;;;;;;;25.75;32.42;98834.27;106211;1276;24268;-85
2022/06/15 12:28:19;;;;;;;6.10;1.60;;;;;;;26.01;32.52;98838.20;105946;1277;22557;-85
2022/06/15 12:31:12;;;;;;;3.40;1.50;;;;;;;26.26;31.97;98835.80;106357;1274;23243;-86
2022/06/15 12:33:53;;;;;;;3.30;1.90;;;;;;;26.60;31.32;98832.08;106231;1274;22697;-85
2022/06/15 12:36:27;;;;;;;4.70;1.60;;;;;;;26.82;30.54;98829.61;106439;1274;137418;-85
2022/06/15 12:43:19;;;;;;;3.90;1.40;;;;;;;27.06;29.66;98825.20;106475;1274;24395;-86
2022/06/15 12:46:14;;;;;;;6.10;1.70;;;;;;;27.10;29.26;98821.25;107343;1274;22961;-84